Time;durP1;ratioP1;P1;durP2;ratioP2;P2;SDS_P1;SDS_P2;PMS_P1;PMS_P2;Temp;Humidity;BMP_temperature;BMP_pressure;BME280_temperature;BME280_humidity;BME280_pressure;Samples;Min_cycle;Max_cycle;Signal;HPM_P1;HPM_P2
2023/12/11 00:01:34;;;;;;;74.43;11.67;;;10.60;99.90;;;;;;4949125;28;38676;-81
2023/12/11 00:04:04;;;;;;;78.82;11.27;;;10.70;99.90;;;;;;4975633;28;38085;-81
2023/12/11 00:06:35;;;;;;;87.85;10.35;;;10.70;99.90;;;;;;4953896;28;50166;-81
2023/12/11 00:09:07;;;;;;;78.03;10.30;;;10.80;99.90;;;;;;4955362;28;39274;-81
2023/12/11 00:11:45;;;;;;;75.30;9.73;;;10.80;99.90;;;;;;4990936;28;49407;-80
2023/12/11 00:14:15;;;;;;;90.30;12.47;;;10.90;99.90;;;;;;4954822;28;39022;-82
2023/12/11 00:17:06;;;;;;;78.17;11.70;;;10.90;99.90;;;;;;4966197;28;41609;-80
2023/12/11 00:19:50;;;;;;;68.63;10.27;;;11.00;99.90;;;;;;4921394;28;50258;-82
2023/12/11 00:22:28;;;;;;;69.13;10.77;;;11.00;99.90;;;;;;4921996;28;38516;-81
2023/12/11 00:24:59;;;;;;;72.87;10.20;;;11.10;99.90;;;;;;4973928;28;36421;-81
2023/12/11 00:27:35;;;;;;;82.40;10.33;;;11.00;99.90;;;;;;4940335;28;39303;-82
2023/12/11 00:30:26;;;;;;;71.30;9.43;;;11.10;99.90;;;;;;4966008;28;40270;-81
2023/12/11 00:33:19;;;;;;;88.30;11.33;;;11.00;99.90;;;;;;4948612;28;40000;-82
2023/12/11 00:35:57;;;;;;;73.57;9.03;;;11.20;99.90;;;;;;4943117;28;38520;-81
2023/12/11 00:38:44;;;;;;;64.17;8.80;;;11.20;99.90;;;;;;4944707;28;41545;-81
2023/12/11 00:41:16;;;;;;;62.73;10.40;;;11.20;99.90;;;;;;4942711;28;38297;-81
2023/12/11 00:44:15;;;;;;;70.60;9.30;;;11.20;99.90;;;;;;4980791;28;40111;-82
2023/12/11 00:46:52;;;;;;;78.90;10.57;;;11.30;99.90;;;;;;4964050;28;50286;-82
2023/12/11 00:49:44;;;;;;;74.70;10.10;;;11.30;99.90;;;;;;4968084;28;39892;-81
2023/12/11 00:52:20;;;;;;;56.93;9.07;;;11.40;99.90;;;;;;4942552;28;39032;-81
2023/12/11 00:54:55;;;;;;;65.43;10.10;;;11.40;99.90;;;;;;4955145;28;41159;-81
2023/12/11 00:57:30;;;;;;;69.97;10.23;;;11.40;99.90;;;;;;4953103;28;38051;-81
2023/12/11 01:00:33;;;;;;;67.57;10.67;;;11.50;99.90;;;;;;4952762;28;40136;-81
2023/12/11 01:03:15;;;;;;;65.77;11.47;;;11.50;99.90;;;;;;4938710;28;49296;-81
2023/12/11 01:05:47;;;;;;;59.45;8.57;;;11.50;99.90;;;;;;4926219;28;47158;-80
2023/12/11 01:08:38;;;;;;;59.87;10.27;;;11.50;99.90;;;;;;4968000;28;38246;-81
2023/12/11 01:11:08;;;;;;;56.27;9.13;;;11.50;99.90;;;;;;4948376;28;39833;-80
2023/12/11 01:14:01;;;;;;;55.55;9.73;;;11.50;99.90;;;;;;4960985;28;38539;-81
2023/12/11 01:16:42;;;;;;;55.83;8.17;;;11.60;99.90;;;;;;4966270;28;49283;-81
2023/12/11 01:19:24;;;;;;;59.30;9.60;;;11.50;99.90;;;;;;4955309;28;38763;-80
2023/12/11 01:22:07;;;;;;;57.67;8.33;;;11.50;99.90;;;;;;4980482;28;40182;-81
2023/12/11 01:24:44;;;;;;;57.30;8.77;;;11.50;99.90;;;;;;4954297;28;50510;-81
2023/12/11 01:27:20;;;;;;;58.60;8.93;;;11.50;99.90;;;;;;4974616;28;39599;-81
2023/12/11 01:29:54;;;;;;;45.25;8.02;;;11.50;99.90;;;;;;4996057;28;38557;-81
2023/12/11 01:32:31;;;;;;;54.07;8.17;;;11.50;99.90;;;;;;4969205;28;40264;-81
2023/12/11 01:35:07;;;;;;;57.63;8.47;;;11.50;99.90;;;;;;4989823;28;38752;-81
2023/12/11 01:38:07;;;;;;;59.80;9.17;;;11.60;99.90;;;;;;4991440;28;48353;-81
2023/12/11 01:40:37;;;;;;;51.20;8.43;;;11.60;99.90;;;;;;4981945;28;48880;-80
2023/12/11 01:43:20;;;;;;;52.00;8.90;;;11.60;99.90;;;;;;4983960;28;39300;-81
2023/12/11 01:46:09;;;;;;;44.75;8.07;;;11.70;99.90;;;;;;4977843;28;40513;-81
2023/12/11 01:48:45;;;;;;;59.10;9.73;;;11.70;99.90;;;;;;4964675;28;48656;-81
2023/12/11 01:51:19;;;;;;;57.27;8.53;;;11.80;99.90;;;;;;4980166;28;38307;-80
2023/12/11 01:54:01;;;;;;;65.93;11.70;;;11.70;99.90;;;;;;4977608;28;40219;-81
2023/12/11 01:56:34;;;;;;;50.20;9.17;;;11.60;99.90;;;;;;4946674;28;49504;-81
2023/12/11 01:59:27;;;;;;;61.53;8.70;;;11.40;99.90;;;;;;4975220;28;39324;-82
2023/12/11 02:04:30;;;;;;;56.47;9.17;;;11.30;99.90;;;;;;4599855;26;20510;-80
2023/12/11 02:06:57;;;;;;;60.60;9.17;;;11.20;99.90;;;;;;4964021;28;38121;-80
2023/12/11 02:09:26;;;;;;;66.83;9.13;;;11.10;99.90;;;;;;4977619;28;38984;-80
2023/12/11 02:11:55;;;;;;;69.60;9.10;;;11.10;99.90;;;;;;4962175;28;36341;-81
2023/12/11 02:14:22;;;;;;;60.57;8.80;;;11.10;99.90;;;;;;4956853;28;39203;-80
2023/12/11 02:16:49;;;;;;;56.70;8.20;;;11.20;99.90;;;;;;4962428;28;39585;-80
2023/12/11 02:19:15;;;;;;;54.40;9.00;;;11.20;99.90;;;;;;4983189;28;39373;-80
2023/12/11 02:21:42;;;;;;;64.73;9.70;;;11.20;99.90;;;;;;4961296;28;36006;-80
2023/12/11 02:24:20;;;;;;;55.13;9.43;;;11.20;99.90;;;;;;4967857;28;37479;-80
2023/12/11 02:26:48;;;;;;;62.60;9.53;;;11.30;99.90;;;;;;4979445;28;39164;-80
2023/12/11 02:29:14;;;;;;;59.93;9.77;;;11.30;99.90;;;;;;4980959;28;37490;-80
2023/12/11 02:31:40;;;;;;;69.83;9.23;;;11.30;99.90;;;;;;4963228;28;36132;-80
2023/12/11 02:34:08;;;;;;;54.97;8.27;;;11.40;99.90;;;;;;4970465;28;37623;-80
2023/12/11 02:36:34;;;;;;;57.13;9.43;;;11.40;99.90;;;;;;4961334;28;38113;-79
2023/12/11 02:39:01;;;;;;;66.97;10.73;;;11.50;99.90;;;;;;4961670;28;37508;-80
2023/12/11 02:41:27;;;;;;;62.80;9.07;;;11.50;99.90;;;;;;4976610;28;47402;-80
2023/12/11 02:43:53;;;;;;;56.40;9.50;;;11.50;99.90;;;;;;4981575;28;41156;-79
2023/12/11 02:46:19;;;;;;;48.53;9.43;;;11.50;99.90;;;;;;4981133;28;39623;-79
2023/12/11 02:48:45;;;;;;;60.20;9.57;;;11.50;99.90;;;;;;4963138;28;38095;-80
2023/12/11 02:51:12;;;;;;;64.93;10.60;;;11.50;99.90;;;;;;4988335;28;38215;-81
2023/12/11 02:53:38;;;;;;;48.47;7.93;;;11.50;99.90;;;;;;4987454;28;39142;-80
2023/12/11 02:56:05;;;;;;;56.27;8.63;;;11.60;99.90;;;;;;4980098;28;39875;-81
2023/12/11 02:58:31;;;;;;;61.47;10.23;;;11.60;99.90;;;;;;4983730;28;38423;-80
2023/12/11 03:00:58;;;;;;;63.40;9.03;;;11.60;99.90;;;;;;4965654;28;37617;-80
2023/12/11 03:03:24;;;;;;;59.63;9.67;;;11.60;99.90;;;;;;4970044;28;37599;-81
2023/12/11 03:05:51;;;;;;;68.53;10.37;;;11.60;99.90;;;;;;4963385;28;39680;-80
2023/12/11 03:08:17;;;;;;;61.37;8.73;;;11.50;99.90;;;;;;4964727;28;37762;-80
2023/12/11 03:10:44;;;;;;;77.63;9.33;;;11.50;99.90;;;;;;4962744;28;37014;-79
2023/12/11 03:13:10;;;;;;;61.00;9.30;;;11.40;99.90;;;;;;4964691;28;38019;-79
2023/12/11 03:15:36;;;;;;;70.77;9.73;;;11.30;99.90;;;;;;4961073;28;37106;-80
2023/12/11 03:18:02;;;;;;;61.07;10.03;;;11.20;99.90;;;;;;4948940;28;38153;-80
2023/12/11 03:20:28;;;;;;;62.83;9.77;;;11.20;99.90;;;;;;4971069;28;37487;-79
2023/12/11 03:22:54;;;;;;;65.23;9.83;;;11.20;99.90;;;;;;4958003;28;38087;-79
2023/12/11 03:25:21;;;;;;;69.30;9.20;;;11.20;99.90;;;;;;4954710;28;37987;-80
2023/12/11 03:27:48;;;;;;;52.87;8.57;;;11.10;99.90;;;;;;4953576;28;37877;-79
2023/12/11 03:30:14;;;;;;;65.07;10.57;;;11.10;99.90;;;;;;4952716;28;37363;-80
2023/12/11 03:32:40;;;;;;;65.90;9.87;;;11.20;99.90;;;;;;4952213;28;38910;-80
2023/12/11 03:35:06;;;;;;;57.97;8.90;;;11.10;99.90;;;;;;4959390;28;39694;-79
2023/12/11 03:37:35;;;;;;;64.23;9.90;;;11.10;99.90;;;;;;4942931;28;38149;-80
2023/12/11 03:40:02;;;;;;;59.67;9.17;;;11.10;99.90;;;;;;4968043;28;37412;-80
2023/12/11 03:42:28;;;;;;;69.83;11.80;;;11.20;99.90;;;;;;4957409;28;37940;-79
2023/12/11 03:44:54;;;;;;;66.60;9.33;;;11.20;99.90;;;;;;4951007;28;38202;-79
2023/12/11 03:47:21;;;;;;;63.13;9.77;;;11.10;99.90;;;;;;4969167;28;38714;-80
2023/12/11 03:49:47;;;;;;;52.43;7.93;;;11.10;99.90;;;;;;4954767;28;36650;-80
2023/12/11 03:52:13;;;;;;;62.13;9.57;;;11.00;99.90;;;;;;4969330;28;38636;-80
2023/12/11 03:54:40;;;;;;;61.97;9.63;;;11.00;99.90;;;;;;4952428;28;38166;-80
2023/12/11 03:57:06;;;;;;;51.27;9.33;;;11.00;99.90;;;;;;4955065;28;38804;-80
2023/12/11 03:59:33;;;;;;;60.03;9.37;;;11.10;99.90;;;;;;4954616;28;36535;-80
2023/12/11 04:02:20;;;;;;;61.00;9.03;;;11.10;99.90;;;;;;4960695;28;38049;-80
2023/12/11 04:04:52;;;;;;;57.67;8.97;;;11.10;99.90;;;;;;4963331;28;47206;-81
2023/12/11 04:07:19;;;;;;;68.95;12.65;;;11.20;99.90;;;;;;4974193;28;37611;-80
2023/12/11 04:09:46;;;;;;;60.77;8.93;;;11.20;99.90;;;;;;4960860;28;38463;-80
2023/12/11 04:12:14;;;;;;;56.20;8.43;;;11.20;99.90;;;;;;4975832;28;39461;-80
2023/12/11 04:14:41;;;;;;;64.03;9.40;;;11.30;99.90;;;;;;4975554;28;37875;-81
2023/12/11 04:17:07;;;;;;;54.30;8.80;;;11.30;99.90;;;;;;4977339;28;39689;-81
2023/12/11 04:19:33;;;;;;;66.03;10.13;;;11.40;99.90;;;;;;4977517;28;37644;-82
2023/12/11 04:21:59;;;;;;;61.93;9.37;;;11.40;99.90;;;;;;4975543;28;39947;-80
2023/12/11 04:24:25;;;;;;;62.60;8.97;;;11.40;99.90;;;;;;4975766;28;38801;-81
2023/12/11 04:26:51;;;;;;;64.00;9.03;;;11.30;99.90;;;;;;4986348;28;40086;-82
2023/12/11 04:29:18;;;;;;;57.83;9.43;;;11.30;99.90;;;;;;4972382;28;36578;-80
2023/12/11 04:31:47;;;;;;;54.37;8.80;;;11.40;99.90;;;;;;4978803;28;37813;-81
2023/12/11 04:34:13;;;;;;;58.07;9.30;;;11.40;99.90;;;;;;4976812;28;40607;-82
2023/12/11 04:36:46;;;;;;;56.90;8.73;;;11.40;99.90;;;;;;4989337;28;38828;-80
2023/12/11 04:39:18;;;;;;;50.03;8.05;;;11.50;99.90;;;;;;4966312;28;35617;-80
2023/12/11 04:41:44;;;;;;;54.30;8.82;;;11.50;99.90;;;;;;4972518;28;38361;-82
2023/12/11 04:44:10;;;;;;;56.17;8.10;;;11.50;99.90;;;;;;4969032;28;37681;-80
2023/12/11 04:46:36;;;;;;;43.07;8.13;;;11.50;99.90;;;;;;4980841;28;38221;-80
2023/12/11 04:49:02;;;;;;;44.50;7.67;;;11.50;99.90;;;;;;4988549;28;37318;-80
2023/12/11 04:51:35;;;;;;;46.83;7.10;;;11.50;99.90;;;;;;4990845;28;39329;-81
2023/12/11 04:54:01;;;;;;;43.55;7.28;;;11.60;99.90;;;;;;4985694;28;38680;-80
2023/12/11 04:56:29;;;;;;;48.60;8.70;;;11.60;99.90;;;;;;4975852;28;46471;-81
2023/12/11 04:58:55;;;;;;;36.60;7.67;;;11.60;99.90;;;;;;4963703;28;36642;-81
2023/12/11 05:01:21;;;;;;;45.23;7.20;;;11.60;99.90;;;;;;4971479;28;37336;-81
2023/12/11 05:03:48;;;;;;;43.30;8.30;;;11.60;99.90;;;;;;4965197;28;38726;-80
2023/12/11 05:06:27;;;;;;;38.40;7.47;;;11.60;99.90;;;;;;4983599;28;40099;-80
2023/12/11 05:08:54;;;;;;;42.00;6.80;;;11.60;99.90;;;;;;4967139;28;35637;-80
2023/12/11 05:11:20;;;;;;;46.63;6.90;;;11.70;99.90;;;;;;4969034;28;38567;-80
2023/12/11 05:13:49;;;;;;;44.27;6.97;;;11.60;99.90;;;;;;4965846;28;37093;-80
2023/12/11 05:16:16;;;;;;;43.70;6.70;;;11.50;99.90;;;;;;4978887;28;35395;-81
2023/12/11 05:18:42;;;;;;;37.83;6.17;;;11.50;99.90;;;;;;4986072;28;38697;-81
2023/12/11 05:21:10;;;;;;;38.77;5.27;;;11.50;99.90;;;;;;4971686;28;38268;-81
2023/12/11 05:23:36;;;;;;;34.53;5.30;;;11.40;99.90;;;;;;4963947;28;37659;-81
2023/12/11 05:26:03;;;;;;;45.37;7.40;;;11.50;99.90;;;;;;4974922;28;39138;-81
2023/12/11 05:28:29;;;;;;;35.10;6.47;;;11.50;99.90;;;;;;4961224;28;36175;-82
2023/12/11 05:30:56;;;;;;;39.23;6.70;;;11.50;99.90;;;;;;4962876;28;37343;-81
2023/12/11 05:33:23;;;;;;;40.57;7.70;;;11.40;99.90;;;;;;4959185;28;39130;-81
2023/12/11 05:35:49;;;;;;;31.00;5.77;;;11.40;99.90;;;;;;4969255;28;38718;-81
2023/12/11 05:38:15;;;;;;;43.73;5.90;;;11.40;99.90;;;;;;4955844;28;36005;-80
2023/12/11 05:40:45;;;;;;;34.90;5.23;;;11.40;99.90;;;;;;4956411;28;37675;-82
2023/12/11 05:43:11;;;;;;;42.13;7.47;;;11.40;99.90;;;;;;4972283;28;40584;-81
2023/12/11 05:45:37;;;;;;;39.47;5.17;;;11.40;99.90;;;;;;4973159;28;37102;-80
2023/12/11 05:48:04;;;;;;;30.93;4.73;;;11.40;99.90;;;;;;4979905;28;38481;-81
2023/12/11 05:50:30;;;;;;;31.07;6.50;;;11.40;99.90;;;;;;4959747;28;40580;-81
2023/12/11 05:52:56;;;;;;;34.33;6.80;;;11.40;99.90;;;;;;4971017;28;37516;-81
2023/12/11 05:55:22;;;;;;;37.23;6.00;;;11.50;99.90;;;;;;4970933;28;37127;-80
2023/12/11 05:57:49;;;;;;;31.93;5.33;;;11.50;99.90;;;;;;4967368;28;36490;-80
2023/12/11 06:00:15;;;;;;;39.07;5.80;;;11.50;99.90;;;;;;4966031;28;40191;-81
2023/12/11 06:02:41;;;;;;;22.23;4.77;;;11.40;99.90;;;;;;4966870;28;37890;-80
2023/12/11 06:05:08;;;;;;;29.70;5.37;;;11.40;99.90;;;;;;4964957;28;37492;-81
2023/12/11 06:07:35;;;;;;;30.93;5.93;;;11.40;99.90;;;;;;4960306;28;38534;-80
2023/12/11 06:10:02;;;;;;;28.23;4.40;;;11.40;99.90;;;;;;4974536;28;36435;-80
2023/12/11 06:12:30;;;;;;;28.73;4.80;;;11.50;99.90;;;;;;4970592;28;20047;-80
2023/12/11 06:14:56;;;;;;;27.57;5.27;;;11.50;99.90;;;;;;4986577;28;38974;-80
2023/12/11 06:17:22;;;;;;;33.17;5.00;;;11.50;99.90;;;;;;4983222;28;37696;-80
2023/12/11 06:19:48;;;;;;;28.90;4.80;;;11.40;99.90;;;;;;4991173;28;39084;-80
2023/12/11 06:22:15;;;;;;;34.10;5.50;;;11.40;99.90;;;;;;4974483;28;38779;-81
2023/12/11 06:24:42;;;;;;;28.93;4.83;;;11.50;99.90;;;;;;4975709;28;38417;-81
2023/12/11 06:27:14;;;;;;;33.60;4.27;;;11.40;99.90;;;;;;4978516;28;35997;-81
2023/12/11 06:29:40;;;;;;;24.65;4.35;;;11.40;99.90;;;;;;4977866;28;38747;-80
2023/12/11 06:32:08;;;;;;;27.23;4.57;;;11.40;99.90;;;;;;4981657;28;39525;-80
2023/12/11 06:34:35;;;;;;;25.13;4.30;;;11.40;99.90;;;;;;4971771;28;38268;-80
2023/12/11 06:37:01;;;;;;;27.10;4.50;;;11.30;99.90;;;;;;4977619;28;37553;-80
2023/12/11 06:39:28;;;;;;;32.53;4.83;;;11.30;99.90;;;;;;4961861;28;37482;-79
2023/12/11 06:41:57;;;;;;;31.47;5.10;;;11.20;99.90;;;;;;4984850;23;37691;-79
2023/12/11 06:44:29;;;;;;;42.23;4.77;;;11.20;99.90;;;;;;4959865;28;37514;-82
2023/12/11 06:46:56;;;;;;;39.05;5.88;;;11.10;99.90;;;;;;4968331;28;36739;-83
2023/12/11 06:49:22;;;;;;;35.33;5.27;;;11.00;99.90;;;;;;4968547;28;37248;-80
2023/12/11 06:51:49;;;;;;;32.20;5.20;;;10.90;99.90;;;;;;4976443;28;39047;-81
2023/12/11 06:54:15;;;;;;;38.43;6.07;;;10.80;99.90;;;;;;4978009;28;39512;-80
2023/12/11 06:56:41;;;;;;;35.07;5.70;;;10.90;99.90;;;;;;4967293;28;37255;-80
2023/12/11 06:59:08;;;;;;;30.63;4.73;;;10.80;99.90;;;;;;4957885;28;37871;-80
2023/12/11 07:01:35;;;;;;;29.50;5.03;;;10.80;99.90;;;;;;4956770;28;37871;-80
2023/12/11 07:04:02;;;;;;;29.13;5.20;;;10.80;99.90;;;;;;4966557;28;37242;-80
2023/12/11 07:06:28;;;;;;;46.33;6.13;;;10.80;99.90;;;;;;4962743;28;47214;-81
2023/12/11 07:08:54;;;;;;;32.03;5.43;;;10.70;99.90;;;;;;4958596;28;37687;-80
2023/12/11 07:11:20;;;;;;;31.90;5.17;;;10.70;99.90;;;;;;4959202;28;37861;-79
2023/12/11 07:13:47;;;;;;;36.13;6.20;;;10.70;99.90;;;;;;4961636;28;37160;-80
2023/12/11 07:16:13;;;;;;;41.50;5.93;;;10.70;99.90;;;;;;4976571;28;38182;-79
2023/12/11 07:18:39;;;;;;;35.63;4.97;;;10.70;99.90;;;;;;4955003;28;37651;-79
2023/12/11 07:21:09;;;;;;;40.70;6.27;;;10.70;99.90;;;;;;4979282;28;38339;-80
2023/12/11 07:23:35;;;;;;;37.53;6.50;;;10.70;99.90;;;;;;4959723;28;38853;-80
2023/12/11 07:26:07;;;;;;;34.50;5.87;;;10.70;99.90;;;;;;4954455;28;37722;-80
2023/12/11 07:28:36;;;;;;;36.23;5.87;;;10.80;99.90;;;;;;4959144;28;39544;-81
2023/12/11 07:31:04;;;;;;;36.77;6.20;;;10.80;99.90;;;;;;4973561;28;39271;-79
2023/12/11 07:33:33;;;;;;;38.37;6.53;;;10.90;99.90;;;;;;4975608;28;38240;-79
2023/12/11 07:35:59;;;;;;;26.60;4.80;;;10.90;99.90;;;;;;4969110;28;37589;-80
2023/12/11 07:38:26;;;;;;;30.63;4.70;;;10.90;99.90;;;;;;4956352;28;37971;-80
2023/12/11 07:40:54;;;;;;;28.47;5.10;;;11.00;99.90;;;;;;4958465;28;37510;-81
2023/12/11 07:43:21;;;;;;;38.30;5.80;;;11.00;99.90;;;;;;4980301;28;39225;-79
2023/12/11 07:45:47;;;;;;;25.33;4.90;;;11.00;99.90;;;;;;4986232;28;37240;-79
2023/12/11 07:48:13;;;;;;;22.23;3.90;;;11.00;99.90;;;;;;4961854;28;37991;-80
2023/12/11 07:50:40;;;;;;;23.80;4.13;;;11.00;99.90;;;;;;4960973;28;39042;-80
2023/12/11 07:53:06;;;;;;;24.07;3.67;;;11.00;99.90;;;;;;4978404;28;39406;-80
2023/12/11 07:55:35;;;;;;;24.40;4.50;;;11.00;99.90;;;;;;4957547;28;36471;-79
2023/12/11 07:58:02;;;;;;;26.47;4.10;;;11.00;99.90;;;;;;4991400;28;39016;-80
2023/12/11 08:00:29;;;;;;;22.10;3.63;;;11.00;99.90;;;;;;4981645;28;49178;-81
2023/12/11 08:02:56;;;;;;;27.87;3.90;;;11.00;99.90;;;;;;4984403;28;37560;-80
2023/12/11 08:05:22;;;;;;;21.67;3.37;;;11.00;99.90;;;;;;4967091;28;37034;-80
2023/12/11 08:07:48;;;;;;;19.13;3.30;;;11.00;99.90;;;;;;4978682;28;39130;-80
2023/12/11 08:10:16;;;;;;;18.00;3.40;;;11.00;99.90;;;;;;4987589;28;39450;-80
2023/12/11 08:12:42;;;;;;;17.97;2.77;;;11.00;99.90;;;;;;4967850;28;37358;-81
2023/12/11 08:15:09;;;;;;;22.67;2.80;;;10.90;99.90;;;;;;4980072;28;36707;-81
2023/12/11 08:17:35;;;;;;;20.43;2.77;;;10.90;99.90;;;;;;4969667;28;39431;-81
2023/12/11 08:20:02;;;;;;;15.47;2.37;;;10.90;99.90;;;;;;4988942;28;38793;-81
2023/12/11 08:22:28;;;;;;;19.00;2.53;;;10.90;99.90;;;;;;4990780;28;39258;-80
2023/12/11 08:24:54;;;;;;;17.33;2.80;;;10.90;99.90;;;;;;4994943;28;36051;-80
2023/12/11 08:27:21;;;;;;;17.80;2.83;;;10.90;99.90;;;;;;4968110;28;38758;-78
2023/12/11 08:29:47;;;;;;;15.50;2.73;;;10.90;99.90;;;;;;4968683;28;37642;-80
2023/12/11 08:32:13;;;;;;;23.87;3.80;;;10.90;99.90;;;;;;4965562;28;39058;-80
2023/12/11 08:34:40;;;;;;;21.40;3.27;;;10.80;99.90;;;;;;4961583;28;37999;-80
2023/12/11 08:37:06;;;;;;;15.73;3.00;;;10.90;99.90;;;;;;4981687;28;39354;-80
2023/12/11 08:39:32;;;;;;;20.77;2.87;;;10.80;99.90;;;;;;4964257;28;39141;-80
2023/12/11 08:41:58;;;;;;;25.43;4.60;;;10.70;99.90;;;;;;4987719;28;39788;-81
2023/12/11 08:44:25;;;;;;;25.23;3.90;;;10.60;99.90;;;;;;4967083;28;36208;-80
2023/12/11 08:46:51;;;;;;;23.53;3.33;;;10.50;99.90;;;;;;4961354;28;37557;-79
2023/12/11 08:49:18;;;;;;;20.53;3.60;;;10.40;99.90;;;;;;4951118;28;38147;-79
2023/12/11 08:51:44;;;;;;;15.83;3.50;;;10.40;99.90;;;;;;4960287;28;36846;-80
2023/12/11 08:54:10;;;;;;;20.20;3.13;;;10.40;99.90;;;;;;4980169;28;37676;-80
2023/12/11 08:56:36;;;;;;;19.50;3.77;;;10.30;99.90;;;;;;4988862;28;39761;-81
2023/12/11 08:59:02;;;;;;;19.20;3.77;;;10.30;99.90;;;;;;4968603;28;39167;-80
2023/12/11 09:01:30;;;;;;;14.73;3.13;;;10.20;99.90;;;;;;4964610;28;37687;-80
2023/12/11 09:03:57;;;;;;;17.30;2.77;;;10.20;99.90;;;;;;4958942;28;37486;-80
2023/12/11 09:06:23;;;;;;;13.13;2.83;;;10.20;99.90;;;;;;4960009;28;40452;-79
2023/12/11 09:08:50;;;;;;;17.83;3.73;;;10.10;99.90;;;;;;4969820;28;40179;-79
2023/12/11 09:11:16;;;;;;;11.00;2.60;;;10.10;99.90;;;;;;4957660;28;37478;-79
2023/12/11 09:13:42;;;;;;;11.93;2.93;;;10.10;99.90;;;;;;4972031;28;36206;-81
2023/12/11 09:16:08;;;;;;;14.30;3.43;;;10.10;99.90;;;;;;4956854;28;37620;-80
2023/12/11 09:18:35;;;;;;;20.37;2.97;;;10.00;99.90;;;;;;4962105;28;37875;-81
2023/12/11 09:21:01;;;;;;;13.53;3.00;;;10.00;99.90;;;;;;4957019;28;38491;-81
2023/12/11 09:23:29;;;;;;;17.27;3.47;;;10.00;99.90;;;;;;4959117;28;47137;-80
2023/12/11 09:25:55;;;;;;;13.60;3.27;;;10.00;99.90;;;;;;4955242;28;38018;-81
2023/12/11 09:28:21;;;;;;;15.53;2.70;;;10.00;99.90;;;;;;4959884;28;39206;-81
2023/12/11 09:30:47;;;;;;;17.90;3.67;;;9.90;99.90;;;;;;4975376;28;36834;-81
2023/12/11 09:33:13;;;;;;;11.20;3.10;;;9.90;99.90;;;;;;4980200;28;36201;-81
2023/12/11 09:35:44;;;;;;;20.10;4.23;;;9.90;99.90;;;;;;4961323;28;38080;-81
2023/12/11 09:38:11;;;;;;;12.87;2.97;;;9.90;99.90;;;;;;4954543;28;39011;-81
2023/12/11 09:40:38;;;;;;;19.20;3.23;;;9.90;99.90;;;;;;4977066;28;38826;-81
2023/12/11 09:43:05;;;;;;;11.53;2.97;;;10.00;99.90;;;;;;4978082;28;37228;-80
2023/12/11 09:45:32;;;;;;;12.70;3.20;;;10.00;99.90;;;;;;4972037;28;39289;-81
2023/12/11 09:47:58;;;;;;;18.43;3.70;;;10.00;99.90;;;;;;4980734;28;39250;-80
2023/12/11 09:50:25;;;;;;;11.23;3.43;;;10.00;99.90;;;;;;4977868;28;38006;-80
2023/12/11 09:52:53;;;;;;;14.87;3.67;;;10.00;99.90;;;;;;4957359;28;35625;-80
2023/12/11 09:55:19;;;;;;;13.23;3.00;;;10.00;99.90;;;;;;4963370;28;37643;-80
2023/12/11 09:57:46;;;;;;;11.50;2.80;;;10.00;99.90;;;;;;4971584;28;39248;-80
2023/12/11 10:00:14;;;;;;;12.87;3.60;;;10.10;99.90;;;;;;4952753;28;37809;-80
2023/12/11 10:02:41;;;;;;;12.73;2.70;;;10.10;99.90;;;;;;4966082;28;37294;-80
2023/12/11 10:05:09;;;;;;;21.17;3.57;;;10.10;99.90;;;;;;4950009;28;37391;-81
2023/12/11 10:07:42;;;;;;;18.27;3.17;;;10.10;99.90;;;;;;4948509;28;37702;-80
2023/12/11 10:10:21;;;;;;;;;;;10.20;99.90;;;;;;4939833;28;37467;-81
2023/12/11 10:12:47;;;;;;;17.40;2.40;;;10.20;99.90;;;;;;4975973;28;37524;-80
2023/12/11 10:15:27;;;;;;;17.03;3.37;;;10.20;99.90;;;;;;4956312;28;38639;-81
2023/12/11 10:18:04;;;;;;;16.37;3.53;;;10.20;99.90;;;;;;4949929;28;37646;-81
2023/12/11 10:20:33;;;;;;;20.43;4.43;;;10.20;99.90;;;;;;4933405;28;46600;-81
2023/12/11 10:23:10;;;;;;;17.17;3.33;;;10.20;99.90;;;;;;4982905;28;37671;-80
2023/12/11 10:25:36;;;;;;;16.20;3.63;;;10.20;99.90;;;;;;4977573;28;48967;-81
2023/12/11 10:28:11;;;;;;;18.57;3.47;;;10.10;99.90;;;;;;4958749;28;37591;-81
2023/12/11 10:30:59;;;;;;;15.03;3.57;;;10.10;99.90;;;;;;4981921;28;38929;-80
2023/12/11 10:33:29;;;;;;;22.03;3.57;;;10.10;99.90;;;;;;4951130;28;36477;-81
2023/12/11 10:36:15;;;;;;;23.17;3.43;;;10.20;99.90;;;;;;4951405;28;38777;-81
2023/12/11 10:38:42;;;;;;;14.73;3.67;;;10.20;99.90;;;;;;4957939;28;47439;-80
2023/12/11 10:41:23;;;;;;;17.33;3.47;;;10.20;99.90;;;;;;4972334;28;38408;-81
2023/12/11 10:43:49;;;;;;;13.27;3.50;;;10.20;99.90;;;;;;4961055;28;35710;-81
2023/12/11 10:46:16;;;;;;;23.03;5.00;;;10.20;99.90;;;;;;4966006;28;38054;-81
2023/12/11 10:48:43;;;;;;;13.60;3.37;;;10.20;99.90;;;;;;4965503;28;38049;-81
2023/12/11 10:51:10;;;;;;;16.53;3.00;;;10.30;99.90;;;;;;4960797;28;37442;-80
2023/12/11 10:53:36;;;;;;;16.03;3.60;;;10.30;99.90;;;;;;4960785;28;36025;-79
2023/12/11 10:56:03;;;;;;;21.50;4.07;;;10.30;99.90;;;;;;4972313;28;37395;-79
2023/12/11 10:58:29;;;;;;;16.37;3.00;;;10.30;99.90;;;;;;4974264;28;39273;-80
2023/12/11 11:01:00;;;;;;;22.87;4.37;;;10.30;99.90;;;;;;4962141;28;37471;-80
2023/12/11 11:03:27;;;;;;;23.13;4.63;;;10.30;99.90;;;;;;4955895;28;36986;-79
2023/12/11 11:05:54;;;;;;;19.00;4.73;;;10.30;99.90;;;;;;4975225;28;38678;-79
2023/12/11 11:08:23;;;;;;;18.37;3.63;;;10.20;99.90;;;;;;4962872;28;38349;-79
2023/12/11 11:11:03;;;;;;;12.63;3.07;;;10.20;99.90;;;;;;4959066;28;37362;-79
2023/12/11 11:13:40;;;;;;;23.33;3.63;;;10.20;99.90;;;;;;4956710;28;47025;-78
2023/12/11 11:16:06;;;;;;;18.37;3.43;;;10.20;99.90;;;;;;4968718;28;39004;-78
2023/12/11 11:19:05;;;;;;;19.57;3.00;;;10.20;99.90;;;;;;4961460;28;39211;-78
2023/12/11 11:21:36;;;;;;;20.13;3.83;;;10.30;99.90;;;;;;4977963;28;48401;-79
2023/12/11 11:24:02;;;;;;;21.97;4.23;;;10.30;99.90;;;;;;4983652;28;37174;-79
2023/12/11 11:26:35;;;;;;;30.73;3.87;;;10.30;99.90;;;;;;4967708;28;37819;-79
2023/12/11 11:29:03;;;;;;;20.30;3.50;;;10.30;99.90;;;;;;4986649;28;38787;-79
2023/12/11 11:31:55;;;;;;;24.07;3.73;;;10.30;99.90;;;;;;4958980;28;38515;-80
2023/12/11 11:34:40;;;;;;;18.43;3.20;;;10.40;99.90;;;;;;4980418;28;38172;-80
2023/12/11 11:37:07;;;;;;;15.73;3.00;;;10.40;99.90;;;;;;4964083;28;37619;-79
2023/12/11 11:39:56;;;;;;;23.43;3.10;;;10.50;99.90;;;;;;4963952;28;39446;-79
2023/12/11 11:42:22;;;;;;;25.67;3.27;;;10.60;99.90;;;;;;4977916;28;38274;-79
2023/12/11 11:44:55;;;;;;;21.83;3.87;;;10.60;99.90;;;;;;4978263;28;37892;-80
2023/12/11 11:47:21;;;;;;;16.52;3.15;;;10.60;99.90;;;;;;4960389;28;37623;-79
2023/12/11 11:49:47;;;;;;;15.30;2.80;;;10.70;99.90;;;;;;4962442;28;38984;-79
2023/12/11 11:52:20;;;;;;;19.13;3.30;;;10.70;99.90;;;;;;4954983;28;37601;-79
2023/12/11 11:54:46;;;;;;;14.80;3.10;;;10.70;99.90;;;;;;4963995;28;36528;-79
2023/12/11 11:57:13;;;;;;;16.47;2.43;;;10.70;99.90;;;;;;4982864;28;38977;-79
2023/12/11 11:59:43;;;;;;;16.10;2.77;;;10.70;99.90;;;;;;4961526;28;37968;-79
2023/12/11 12:02:10;;;;;;;17.47;2.47;;;10.70;99.90;;;;;;4983453;28;38014;-79
2023/12/11 12:04:36;;;;;;;13.33;3.10;;;10.70;99.90;;;;;;4968518;28;35828;-79
2023/12/11 12:07:04;;;;;;;16.87;2.53;;;10.70;99.90;;;;;;4975672;28;38720;-78
2023/12/11 12:09:32;;;;;;;14.97;2.00;;;10.80;99.90;;;;;;4958272;28;39151;-78
2023/12/11 12:11:58;;;;;;;14.97;2.43;;;10.80;99.90;;;;;;4951486;28;38158;-78
2023/12/11 12:14:27;;;;;;;11.40;1.80;;;10.80;99.90;;;;;;4956082;28;37328;-79
2023/12/11 12:16:55;;;;;;;11.13;2.30;;;10.80;99.90;;;;;;4958844;28;38169;-79
2023/12/11 12:19:31;;;;;;;24.13;3.07;;;10.80;99.90;;;;;;4958055;28;38608;-79
2023/12/11 12:21:58;;;;;;;19.30;2.97;;;10.80;99.90;;;;;;4954734;28;37591;-79
2023/12/11 12:24:25;;;;;;;17.87;3.70;;;10.80;99.90;;;;;;4975637;28;37112;-79
2023/12/11 12:27:02;;;;;;;25.47;3.37;;;10.70;99.90;;;;;;4949730;28;37990;-78
2023/12/11 12:29:32;;;;;;;23.40;3.90;;;10.60;99.90;;;;;;4952794;28;47289;-78
2023/12/11 12:32:01;;;;;;;18.03;2.93;;;10.50;99.90;;;;;;4953654;28;37566;-78
2023/12/11 12:34:30;;;;;;;16.13;3.40;;;10.40;99.90;;;;;;4966930;28;47372;-78
2023/12/11 12:37:00;;;;;;;19.40;4.03;;;10.30;99.90;;;;;;4952640;28;40719;-78
2023/12/11 12:39:27;;;;;;;20.43;3.23;;;10.30;99.90;;;;;;4954326;28;39554;-79
2023/12/11 12:41:53;;;;;;;29.63;3.87;;;10.20;99.90;;;;;;4957920;28;37240;-79
2023/12/11 12:44:20;;;;;;;27.63;4.03;;;10.20;99.90;;;;;;4951630;28;37538;-78
2023/12/11 12:46:46;;;;;;;24.00;4.63;;;10.20;99.90;;;;;;4953296;28;38351;-79
2023/12/11 12:49:15;;;;;;;30.60;4.30;;;10.20;99.90;;;;;;4955811;28;39128;-79
2023/12/11 12:51:54;;;;;;;23.47;4.60;;;10.10;99.90;;;;;;4946410;28;37144;-79